Time;durP1;ratioP1;P1;durP2;ratioP2;P2;SDS_P1;SDS_P2;PMS_P1;PMS_P2;Temp;Humidity;BMP_temperature;BMP_pressure;BME280_temperature;BME280_humidity;BME280_pressure;Samples;Min_cycle;Max_cycle;Signal;HPM_P1;HPM_P2
2023/06/22 00:00:13;;;;;;;28.00;14.80;;;;;;;23.63;100.00;98996.68;136056;1275;22527;-58
2023/06/22 00:03:36;;;;;;;;;;;;;;;23.51;100.00;98991.45;136090;1275;22494;-57
2023/06/22 00:06:38;;;;;;;;;;;;;;;23.28;100.00;98993.98;136035;1275;22519;-56
2023/06/22 00:09:41;;;;;;;;;;;;;;;23.12;100.00;98999.17;136098;1275;22633;-57
2023/06/22 00:12:43;;;;;;;;;;;;;;;23.03;100.00;98996.75;136048;1275;22517;-57
2023/06/22 00:15:45;;;;;;;27.90;13.10;;;;;;;22.91;100.00;99001.15;136043;1275;22670;-56
2023/06/22 00:18:48;;;;;;;37.30;13.30;;;;;;;22.89;100.00;98998.48;135987;1275;22530;-67
2023/06/22 00:21:52;;;;;;;26.40;14.70;;;;;;;22.93;100.00;98991.21;136089;1275;22520;-62
2023/06/22 00:24:55;;;;;;;31.10;16.40;;;;;;;23.04;100.00;98985.55;136097;1275;22531;-57
2023/06/22 00:27:57;;;;;;;29.00;14.90;;;;;;;23.08;100.00;98981.77;136132;1275;22520;-58
2023/06/22 00:31:00;;;;;;;75.20;11.00;;;;;;;23.03;100.00;98978.16;136137;1275;25233;-57
2023/06/22 00:34:02;;;;;;;51.60;10.00;;;;;;;22.87;100.00;98975.68;136071;1275;22516;-59
2023/06/22 00:37:05;;;;;;;30.50;10.50;;;;;;;22.82;100.00;98980.13;136118;1275;22531;-58
2023/06/22 00:40:08;;;;;;;41.40;11.30;;;;;;;22.68;100.00;98982.08;136140;1275;24047;-57
2023/06/22 00:43:10;;;;;;;33.30;12.80;;;;;;;22.58;100.00;98979.92;136138;1275;24332;-57
2023/06/22 00:46:13;;;;;;;55.20;13.70;;;;;;;22.59;100.00;98980.88;135894;1275;22723;-57
2023/06/22 00:49:15;;;;;;;37.00;13.50;;;;;;;22.65;100.00;98977.00;135903;1275;22628;-56
2023/06/22 00:52:20;;;;;;;48.80;14.90;;;;;;;22.63;100.00;98970.80;136061;1275;25217;-57
2023/06/22 00:55:23;;;;;;;34.90;16.80;;;;;;;22.59;100.00;98979.83;136058;1275;22538;-57
2023/06/22 00:58:25;;;;;;;31.40;16.10;;;;;;;22.50;100.00;98989.52;136108;1275;22654;-57
2023/06/22 01:01:27;;;;;;;28.50;13.90;;;;;;;22.33;100.00;98986.37;136102;1275;22524;-57
2023/06/22 01:04:30;;;;;;;30.00;16.30;;;;;;;22.08;100.00;98982.70;136099;1275;22521;-58
2023/06/22 01:07:32;;;;;;;28.50;15.90;;;;;;;22.04;100.00;98979.46;136110;1275;22626;-57
2023/06/22 01:10:34;;;;;;;30.30;16.50;;;;;;;22.02;100.00;98979.98;136084;1275;24248;-56
2023/06/22 01:13:37;;;;;;;28.50;15.10;;;;;;;22.02;100.00;98983.85;136089;1265;22647;-56
2023/06/22 01:16:39;;;;;;;28.90;15.30;;;;;;;22.08;100.00;98994.42;136064;1264;22548;-57
2023/06/22 01:19:42;;;;;;;30.00;15.60;;;;;;;22.19;100.00;98993.90;136079;1275;22528;-58
2023/06/22 01:22:45;;;;;;;31.80;16.50;;;;;;;22.20;100.00;98997.27;136114;1257;22626;-57
2023/06/22 01:25:47;;;;;;;28.90;16.00;;;;;;;22.14;100.00;98998.08;136012;1275;25930;-57
2023/06/22 01:28:49;;;;;;;26.60;14.60;;;;;;;22.07;100.00;99000.23;136067;1275;22534;-56
2023/06/22 01:31:52;;;;;;;34.40;13.80;;;;;;;22.06;100.00;98994.86;136046;1275;22570;-58
2023/06/22 01:34:54;;;;;;;27.70;14.60;;;;;;;22.00;100.00;98991.73;136060;1257;22531;-57
2023/06/22 01:37:56;;;;;;;26.50;13.20;;;;;;;21.97;100.00;98991.49;136055;1275;22548;-57
2023/06/22 01:40:59;;;;;;;27.80;11.90;;;;;;;21.94;100.00;99002.40;136068;1275;22629;-57
2023/06/22 01:44:02;;;;;;;24.60;10.50;;;;;;;21.92;100.00;99009.89;136072;1275;22528;-57
2023/06/22 01:47:04;;;;;;;31.10;14.00;;;;;;;22.02;100.00;99009.20;135935;1275;22553;-68
2023/06/22 01:50:09;;;;;;;56.20;11.90;;;;;;;22.11;100.00;99012.83;135953;1275;22528;-59
2023/06/22 01:53:11;;;;;;;29.40;16.10;;;;;;;22.00;100.00;99014.00;136093;1275;24293;-57
2023/06/22 01:56:14;;;;;;;29.40;15.90;;;;;;;21.86;100.00;99013.88;136060;1275;22543;-61
2023/06/22 01:59:16;;;;;;;30.80;17.30;;;;;;;21.77;100.00;99011.91;136041;1275;22540;-57
2023/06/22 02:02:18;;;;;;;31.40;16.80;;;;;;;21.74;100.00;99006.60;136087;1275;22535;-58
2023/06/22 02:05:21;;;;;;;32.70;17.90;;;;;;;21.85;100.00;99010.31;136039;1275;22520;-61
2023/06/22 02:08:23;;;;;;;32.10;17.00;;;;;;;21.91;100.00;99007.89;136119;1275;22539;-58
2023/06/22 02:11:27;;;;;;;30.10;16.90;;;;;;;21.92;100.00;99012.33;136051;1275;22521;-59
2023/06/22 02:14:29;;;;;;;29.00;13.10;;;;;;;21.93;100.00;99018.98;135943;1275;22532;-57
2023/06/22 02:17:33;;;;;;;30.50;14.30;;;;;;;22.05;100.00;99022.38;136090;1275;22524;-58
2023/06/22 02:20:36;;;;;;;34.50;16.10;;;;;;;22.05;100.00;99024.73;136067;1275;22522;-57
2023/06/22 02:23:38;;;;;;;37.50;15.30;;;;;;;21.98;100.00;99031.48;136086;1275;22636;-57
2023/06/22 02:26:42;;;;;;;30.10;15.80;;;;;;;22.01;100.00;99033.66;136117;1275;22562;-58
2023/06/22 02:29:44;;;;;;;31.30;16.90;;;;;;;22.02;100.00;99031.41;136023;1275;22666;-60
2023/06/22 02:32:47;;;;;;;31.90;18.00;;;;;;;22.00;100.00;99033.76;136100;1275;22541;-58
2023/06/22 02:35:49;;;;;;;31.60;16.60;;;;;;;22.06;100.00;99045.39;136094;1275;22594;-56
2023/06/22 02:38:52;;;;;;;30.70;16.80;;;;;;;22.14;100.00;99050.23;136075;1275;25226;-57
2023/06/22 02:41:54;;;;;;;31.50;17.90;;;;;;;22.21;100.00;99060.73;136001;1275;22546;-57
2023/06/22 02:44:56;;;;;;;32.60;18.30;;;;;;;22.16;100.00;99062.16;136034;1275;22538;-57
2023/06/22 02:47:59;;;;;;;30.30;17.00;;;;;;;22.15;100.00;99063.15;136101;1275;22517;-58
2023/06/22 02:51:01;;;;;;;33.50;18.50;;;;;;;22.10;100.00;99062.06;136016;1275;22537;-56
2023/06/22 02:54:03;;;;;;;31.00;18.20;;;;;;;22.12;100.00;99065.94;136073;1275;22703;-57
2023/06/22 02:57:06;;;;;;;31.70;19.20;;;;;;;22.24;100.00;99064.40;136052;1275;24469;-56
2023/06/22 03:00:16;;;;;;;32.20;19.30;;;;;;;22.30;100.00;99073.02;136082;1275;22458;-57
2023/06/22 03:03:19;;;;;;;30.50;18.50;;;;;;;22.25;100.00;99076.52;136121;1275;22530;-56
2023/06/22 03:06:23;;;;;;;32.70;17.90;;;;;;;22.33;100.00;99081.05;136069;1275;22523;-57
2023/06/22 03:09:25;;;;;;;32.80;19.30;;;;;;;22.25;100.00;99083.27;136121;1275;22626;-57
2023/06/22 03:12:28;;;;;;;35.40;21.40;;;;;;;22.21;100.00;99083.38;136031;1275;22549;-57
2023/06/22 03:15:31;;;;;;;37.60;21.90;;;;;;;22.14;100.00;99086.91;136004;1275;22521;-60
2023/06/22 03:18:33;;;;;;;33.10;18.70;;;;;;;22.01;100.00;99090.10;136035;1264;22535;-57
2023/06/22 03:21:37;;;;;;;36.60;22.00;;;;;;;21.93;100.00;99103.92;136074;1275;22524;-61
2023/06/22 03:24:39;;;;;;;32.20;19.10;;;;;;;22.14;100.00;99099.23;136049;1275;22520;-59
2023/06/22 03:27:41;;;;;;;33.10;19.00;;;;;;;22.21;100.00;99094.08;136070;1275;22636;-57
2023/06/22 03:30:44;;;;;;;34.10;19.40;;;;;;;22.15;100.00;99096.98;136045;1275;22534;-60
2023/06/22 03:33:46;;;;;;;34.40;21.50;;;;;;;22.20;100.00;99109.84;136064;1275;22537;-62
2023/06/22 03:36:49;;;;;;;32.50;19.20;;;;;;;22.30;100.00;99117.16;136071;1261;22474;-58
2023/06/22 03:39:51;;;;;;;29.30;15.80;;;;;;;22.32;100.00;99118.05;136033;1272;23004;-61
2023/06/22 03:42:53;;;;;;;32.20;15.30;;;;;;;22.39;100.00;99119.79;136072;1275;22542;-57
2023/06/22 03:45:56;;;;;;;32.00;18.10;;;;;;;22.39;100.00;99122.66;136076;1275;22632;-59
2023/06/22 03:48:58;;;;;;;31.20;18.00;;;;;;;22.35;100.00;99122.25;136009;1275;22566;-58
2023/06/22 03:52:00;;;;;;;35.40;21.90;;;;;;;22.35;100.00;99125.19;136075;1275;22531;-59
2023/06/22 03:55:03;;;;;;;33.70;21.30;;;;;;;22.32;100.00;99127.09;136099;1275;22623;-60
2023/06/22 03:58:06;;;;;;;31.50;17.80;;;;;;;22.40;100.00;99128.81;136125;1275;22646;-59
2023/06/22 04:01:11;;;;;;;31.80;18.50;;;;;;;22.49;100.00;99135.35;136084;1275;22773;-58
2023/06/22 04:04:14;;;;;;;32.50;20.00;;;;;;;22.64;100.00;99128.00;136073;1275;24216;-57
2023/06/22 04:07:17;;;;;;;29.50;16.70;;;;;;;22.82;100.00;99127.00;136039;1261;24222;-57
2023/06/22 04:10:20;;;;;;;31.80;18.10;;;;;;;22.83;100.00;99135.99;136053;1275;25494;-59
2023/06/22 04:13:22;;;;;;;31.80;17.30;;;;;;;22.93;100.00;99131.41;136092;1275;22540;-58
2023/06/22 04:16:25;;;;;;;30.30;17.10;;;;;;;23.18;100.00;99133.55;136064;1253;22518;-57
2023/06/22 04:19:27;;;;;;;33.30;19.00;;;;;;;23.24;100.00;99133.39;136123;1275;22626;-57
2023/06/22 04:22:29;;;;;;;34.40;19.20;;;;;;;23.35;100.00;99135.57;136067;1275;22555;-57
2023/06/22 04:25:32;;;;;;;33.20;19.20;;;;;;;23.41;100.00;99133.13;136076;1275;22536;-57
2023/06/22 04:28:35;;;;;;;32.90;19.90;;;;;;;23.46;100.00;99141.05;136086;1275;22538;-58
2023/06/22 04:31:38;;;;;;;34.70;20.20;;;;;;;23.50;100.00;99148.60;136078;1275;22538;-57
2023/06/22 04:34:40;;;;;;;32.60;19.90;;;;;;;23.48;100.00;99149.02;136058;1275;22531;-56
2023/06/22 04:37:42;;;;;;;36.70;21.60;;;;;;;23.52;100.00;99161.19;136100;1264;23001;-56
2023/06/22 04:40:45;;;;;;;40.10;24.60;;;;;;;23.46;100.00;99162.63;136094;1275;22538;-56
2023/06/22 04:43:53;;;;;;;40.00;23.50;;;;;;;23.47;100.00;99150.17;135993;1273;22544;-56
2023/06/22 04:46:59;;;;;;;38.30;23.70;;;;;;;23.43;100.00;99152.55;136083;1275;26608;-57
2023/06/22 04:50:05;;;;;;;37.40;23.60;;;;;;;23.49;100.00;99150.66;136074;1275;24346;-56
2023/06/22 04:53:09;;;;;;;38.40;24.50;;;;;;;23.85;100.00;99149.39;136045;1275;22540;-56
2023/06/22 04:56:12;;;;;;;40.70;24.70;;;;;;;24.18;100.00;99152.00;136056;1275;22536;-56
2023/06/22 04:59:14;;;;;;;38.90;25.20;;;;;;;24.36;100.00;99156.77;136042;1275;22531;-57
2023/06/22 05:02:16;;;;;;;37.60;23.70;;;;;;;24.35;100.00;99156.27;136030;1275;25388;-57
2023/06/22 05:05:19;;;;;;;38.60;25.00;;;;;;;24.34;100.00;99152.14;136095;1274;22547;-56
2023/06/22 05:08:21;;;;;;;40.00;24.30;;;;;;;24.46;100.00;99155.27;136097;1275;22550;-56
2023/06/22 05:11:24;;;;;;;40.10;24.60;;;;;;;24.53;100.00;99155.63;136023;1275;22548;-56
2023/06/22 05:14:26;;;;;;;41.10;26.00;;;;;;;24.51;100.00;99156.81;136035;1275;22519;-56
2023/06/22 05:17:28;;;;;;;39.70;26.30;;;;;;;24.38;100.00;99159.36;136124;1275;24417;-56
2023/06/22 05:20:31;;;;;;;39.60;25.50;;;;;;;24.34;100.00;99158.88;136076;1275;22523;-58
2023/06/22 05:23:33;;;;;;;38.30;25.30;;;;;;;24.39;100.00;99159.13;136044;1275;22534;-56
2023/06/22 05:26:35;;;;;;;40.90;25.90;;;;;;;24.57;100.00;99157.98;136064;1275;22565;-58
2023/06/22 05:29:38;;;;;;;41.60;26.00;;;;;;;24.90;100.00;99159.94;136158;1275;22524;-56
2023/06/22 05:32:40;;;;;;;40.20;26.90;;;;;;;25.14;100.00;99167.34;136060;1275;23321;-56
2023/06/22 05:35:43;;;;;;;40.60;26.10;;;;;;;25.36;100.00;99173.40;136040;1275;22535;-57
2023/06/22 05:38:45;;;;;;;39.70;24.40;;;;;;;25.58;100.00;99172.73;136108;1275;22516;-56
2023/06/22 05:41:48;;;;;;;39.30;26.00;;;;;;;25.74;100.00;99171.59;136129;1275;22643;-56
2023/06/22 05:44:50;;;;;;;39.60;26.90;;;;;;;25.75;100.00;99174.73;136112;1275;22523;-56
2023/06/22 05:47:54;;;;;;;38.60;25.60;;;;;;;25.62;100.00;99179.75;136133;1275;25390;-56
2023/06/22 05:50:56;;;;;;;40.50;28.30;;;;;;;25.61;100.00;99178.73;136138;1275;24364;-57
2023/06/22 05:54:00;;;;;;;39.20;26.70;;;;;;;25.66;100.00;99180.26;136090;1258;22551;-56
2023/06/22 05:57:02;;;;;;;38.60;26.60;;;;;;;25.66;100.00;99190.39;136088;1275;22561;-56
2023/06/22 06:00:08;;;;;;;40.10;25.10;;;;;;;25.52;100.00;99190.42;136139;1275;22535;-58
2023/06/22 06:03:10;;;;;;;37.80;25.00;;;;;;;25.62;100.00;99187.69;136041;1275;22523;-56
2023/06/22 06:06:13;;;;;;;40.10;25.00;;;;;;;25.84;100.00;99181.85;136081;1275;23137;-56
2023/06/22 06:09:15;;;;;;;39.70;25.50;;;;;;;26.08;100.00;99182.02;136037;1275;22526;-64
2023/06/22 06:12:18;;;;;;;38.00;24.60;;;;;;;26.16;100.00;99186.48;136111;1275;22582;-57
2023/06/22 06:15:20;;;;;;;42.20;27.10;;;;;;;26.02;100.00;99198.52;136093;1275;22542;-58
2023/06/22 06:18:22;;;;;;;38.00;25.30;;;;;;;25.90;100.00;99206.88;136073;1258;22558;-56
2023/06/22 06:21:25;;;;;;;35.70;24.20;;;;;;;25.92;100.00;99206.16;136078;1275;22634;-56
2023/06/22 06:24:27;;;;;;;33.90;21.10;;;;;;;26.20;100.00;99204.07;136080;1275;24189;-56
2023/06/22 06:27:29;;;;;;;35.20;21.00;;;;;;;26.38;100.00;99208.89;136133;1275;22531;-57
2023/06/22 06:30:32;;;;;;;32.70;20.40;;;;;;;26.56;98.60;99206.65;136128;1275;22547;-56
2023/06/22 06:33:34;;;;;;;33.70;20.20;;;;;;;26.63;99.42;99211.20;136068;1275;22541;-57
2023/06/22 06:36:37;;;;;;;30.80;18.50;;;;;;;26.75;95.58;99210.05;136078;1275;22544;-57
2023/06/22 06:39:39;;;;;;;32.00;19.10;;;;;;;26.95;93.76;99205.35;136127;1275;22879;-56
2023/06/22 06:42:44;;;;;;;32.70;19.30;;;;;;;27.22;94.81;99207.73;136130;1275;22538;-57
2023/06/22 06:45:46;;;;;;;30.90;20.20;;;;;;;27.34;92.60;99205.81;136114;1275;22544;-57
2023/06/22 06:48:49;;;;;;;31.10;19.70;;;;;;;27.45;90.79;99207.14;136126;1275;22645;-56
2023/06/22 06:51:51;;;;;;;30.20;18.50;;;;;;;27.70;90.27;99205.60;136020;1275;22528;-57
2023/06/22 06:54:53;;;;;;;31.10;18.00;;;;;;;27.77;83.28;99211.71;136151;1275;22561;-56
2023/06/22 06:57:56;;;;;;;28.20;17.20;;;;;;;27.63;85.28;99207.57;136086;1275;22539;-56
2023/06/22 07:00:58;;;;;;;30.90;16.00;;;;;;;27.81;83.90;99207.43;136118;1275;22523;-56
2023/06/22 07:04:01;;;;;;;24.10;13.30;;;;;;;27.94;79.56;99209.50;136088;1275;22531;-56
2023/06/22 07:07:03;;;;;;;22.40;10.80;;;;;;;27.84;73.84;99214.20;136080;1275;22643;-56
2023/06/22 07:10:06;;;;;;;23.00;11.30;;;;;;;27.79;70.84;99211.09;136068;1275;22559;-56
2023/06/22 07:13:08;;;;;;;22.60;10.90;;;;;;;27.80;68.20;99216.29;136138;1275;22528;-56
2023/06/22 07:16:11;;;;;;;20.80;9.50;;;;;;;27.89;67.27;99211.00;136143;1275;22539;-56
2023/06/22 07:19:13;;;;;;;22.40;9.50;;;;;;;28.01;63.17;99209.53;136092;1275;22531;-56
2023/06/22 07:22:15;;;;;;;20.00;7.90;;;;;;;28.11;65.07;99204.04;136147;1275;22528;-56
2023/06/22 07:25:18;;;;;;;18.90;7.60;;;;;;;28.09;57.22;99210.20;136151;1275;25607;-56
2023/06/22 07:28:20;;;;;;;18.50;7.60;;;;;;;28.05;56.58;99213.22;136167;1275;22527;-56
2023/06/22 07:31:23;;;;;;;19.10;8.00;;;;;;;28.02;57.40;99214.45;136099;1275;22523;-56
2023/06/22 07:34:25;;;;;;;19.60;7.50;;;;;;;28.10;57.92;99207.92;136106;1275;22673;-57
2023/06/22 07:37:28;;;;;;;18.30;7.30;;;;;;;28.34;56.68;99208.43;136070;1275;22534;-57
2023/06/22 07:40:31;;;;;;;19.80;8.10;;;;;;;28.52;55.59;99200.48;136140;1275;22534;-59
2023/06/22 07:43:34;;;;;;;18.90;7.50;;;;;;;28.73;54.43;99205.14;136102;1275;24200;-57
2023/06/22 07:46:36;;;;;;;21.30;7.80;;;;;;;28.82;52.41;99208.49;136088;1275;22642;-57
2023/06/22 07:49:39;;;;;;;18.30;7.90;;;;;;;28.92;54.05;99200.88;136107;1275;22534;-57
2023/06/22 07:52:41;;;;;;;19.90;7.80;;;;;;;29.09;54.65;99206.15;136133;1258;22531;-58
2023/06/22 07:55:44;;;;;;;20.00;9.10;;;;;;;29.30;55.46;99210.27;136127;1275;22776;-57
2023/06/22 07:58:46;;;;;;;21.50;8.10;;;;;;;29.50;53.65;99210.17;136119;1275;22550;-58
2023/06/22 08:01:50;;;;;;;18.30;6.90;;;;;;;29.45;51.50;99214.30;136089;1275;22538;-57
2023/06/22 08:04:52;;;;;;;18.40;6.50;;;;;;;29.41;50.36;99216.15;136079;1275;22567;-57
2023/06/22 08:07:54;;;;;;;19.20;7.20;;;;;;;29.41;48.91;99221.19;136119;1275;22539;-56
2023/06/22 08:10:57;;;;;;;16.80;6.60;;;;;;;29.19;49.08;99218.17;136141;1275;24587;-56
2023/06/22 08:14:01;;;;;;;16.30;6.50;;;;;;;29.22;49.10;99220.31;136079;1275;22535;-57
2023/06/22 08:17:03;;;;;;;18.90;6.50;;;;;;;29.25;50.26;99213.64;136138;1275;22532;-56
2023/06/22 08:20:09;;;;;;;19.20;6.70;;;;;;;29.46;50.20;99220.68;136119;1275;22639;-57
2023/06/22 08:23:11;;;;;;;17.50;6.70;;;;;;;29.55;48.39;99215.59;136113;1275;22648;-57
2023/06/22 08:26:14;;;;;;;18.10;6.70;;;;;;;29.53;48.59;99220.27;136109;1275;22547;-57
2023/06/22 08:29:16;;;;;;;20.70;7.40;;;;;;;29.64;48.81;99224.43;136125;1257;22649;-57
2023/06/22 08:32:19;;;;;;;17.50;6.40;;;;;;;29.69;48.87;99228.02;136095;1275;22541;-57
2023/06/22 08:35:21;;;;;;;17.60;6.40;;;;;;;29.80;49.18;99228.73;136099;1275;24211;-58
2023/06/22 08:38:24;;;;;;;18.00;6.70;;;;;;;29.99;48.89;99232.88;136101;1275;22538;-57
2023/06/22 08:41:27;;;;;;;19.70;6.50;;;;;;;30.11;48.42;99236.65;136113;1275;22557;-57
2023/06/22 08:44:29;;;;;;;22.00;6.90;;;;;;;30.01;47.18;99233.84;136082;1275;25243;-57
2023/06/22 08:47:32;;;;;;;18.50;6.80;;;;;;;29.99;45.88;99240.70;136110;1275;22531;-56
2023/06/22 08:50:34;;;;;;;16.70;6.00;;;;;;;29.98;47.07;99237.08;136087;1275;22520;-56
2023/06/22 08:53:37;;;;;;;16.40;6.00;;;;;;;30.05;45.97;99243.72;136132;1275;22659;-57
2023/06/22 08:56:39;;;;;;;17.40;6.60;;;;;;;30.03;46.56;99248.94;136087;1257;23114;-56
2023/06/22 08:59:41;;;;;;;16.20;5.90;;;;;;;30.08;46.27;99246.96;136089;1275;22542;-57
2023/06/22 09:02:44;;;;;;;20.10;6.50;;;;;;;30.26;45.42;99252.77;136070;1275;25337;-57
2023/06/22 09:05:46;;;;;;;16.40;6.30;;;;;;;30.30;45.73;99255.25;136083;1275;22527;-56
2023/06/22 09:08:49;;;;;;;17.10;6.60;;;;;;;30.44;46.39;99248.70;136082;1275;22543;-57
2023/06/22 09:11:51;;;;;;;16.60;6.40;;;;;;;30.74;47.28;99245.89;136069;1275;22546;-56
2023/06/22 09:14:54;;;;;;;17.30;6.60;;;;;;;31.06;47.14;99240.72;136096;1275;22537;-59
2023/06/22 09:17:57;;;;;;;18.60;7.10;;;;;;;31.08;46.11;99245.90;136100;1274;22527;-57
2023/06/22 09:20:59;;;;;;;17.10;6.50;;;;;;;31.11;46.53;99245.73;136171;1275;22535;-57
2023/06/22 09:24:02;;;;;;;20.60;7.10;;;;;;;31.15;46.28;99253.86;136091;1275;22549;-57
2023/06/22 09:27:04;;;;;;;19.30;7.70;;;;;;;30.83;47.46;99247.05;136093;1275;23911;-58
2023/06/22 09:30:07;;;;;;;18.60;7.70;;;;;;;30.55;47.60;99244.10;136104;1275;22655;-58
2023/06/22 09:33:09;;;;;;;19.50;7.80;;;;;;;30.52;47.69;99243.89;136115;1275;22540;-57
2023/06/22 09:36:12;;;;;;;19.20;7.40;;;;;;;30.78;48.34;99240.63;136139;1275;22531;-57
2023/06/22 09:39:14;;;;;;;18.50;7.40;;;;;;;31.04;46.92;99236.38;136113;1275;22626;-57
2023/06/22 09:42:16;;;;;;;21.30;7.20;;;;;;;31.50;46.23;99240.17;136127;1275;22535;-57
2023/06/22 09:45:19;;;;;;;19.40;6.90;;;;;;;31.43;44.72;99244.40;135967;1275;22540;-57
2023/06/22 09:48:21;;;;;;;18.50;6.70;;;;;;;31.40;44.94;99241.58;136013;1275;22534;-56
2023/06/22 09:51:24;;;;;;;18.70;6.90;;;;;;;31.20;43.77;99246.47;136093;1276;22550;-57
2023/06/22 09:54:26;;;;;;;17.30;6.90;;;;;;;31.12;45.22;99241.75;136085;1275;22539;-58
2023/06/22 09:57:29;;;;;;;17.40;6.80;;;;;;;31.06;45.80;99242.88;136080;1275;22519;-57
2023/06/22 10:00:31;;;;;;;17.40;6.40;;;;;;;31.26;44.17;99236.80;136080;1276;22531;-58
2023/06/22 10:03:34;;;;;;;16.50;6.20;;;;;;;31.58;45.42;99232.75;136070;1276;22537;-58
2023/06/22 10:06:36;;;;;;;16.30;6.40;;;;;;;31.98;44.67;99231.79;136069;1276;23138;-56
2023/06/22 10:09:39;;;;;;;17.40;7.10;;;;;;;32.22;43.37;99233.11;135896;1275;253922;-58
2023/06/22 10:12:41;;;;;;;17.70;6.90;;;;;;;32.36;43.14;99231.09;136042;1275;22527;-57
2023/06/22 10:15:45;;;;;;;18.50;6.90;;;;;;;32.33;43.67;99232.91;136020;1265;25850;-57
2023/06/22 10:18:47;;;;;;;18.20;7.20;;;;;;;31.91;43.67;99235.14;136095;1276;25304;-57
2023/06/22 10:21:50;;;;;;;21.90;7.60;;;;;;;31.57;44.42;99235.25;136040;1276;25484;-57
2023/06/22 10:24:52;;;;;;;18.20;7.90;;;;;;;31.45;44.48;99228.63;136058;1275;22554;-57
2023/06/22 10:27:55;;;;;;;20.20;7.10;;;;;;;31.41;44.36;99229.27;136084;1275;22575;-57
2023/06/22 10:30:57;;;;;;;20.50;7.50;;;;;;;31.45;43.79;99229.32;136122;1275;22656;-57
2023/06/22 10:33:59;;;;;;;18.70;7.30;;;;;;;31.77;44.24;99227.72;136010;1275;24373;-57
2023/06/22 10:37:02;;;;;;;17.80;7.30;;;;;;;31.89;43.78;99232.16;136010;1275;22557;-57
2023/06/22 10:40:05;;;;;;;18.40;7.00;;;;;;;31.88;44.55;99228.58;136047;1275;22757;-60
2023/06/22 10:43:07;;;;;;;16.60;7.10;;;;;;;31.85;44.18;99224.98;136069;1275;22560;-57
2023/06/22 10:46:09;;;;;;;19.00;6.90;;;;;;;32.04;43.04;99224.55;136100;1275;23117;-58
2023/06/22 10:49:12;;;;;;;16.80;6.50;;;;;;;32.31;43.71;99216.48;136027;1275;22530;-57
2023/06/22 10:52:14;;;;;;;14.40;6.20;;;;;;;32.50;43.07;99208.40;136007;1276;22531;-63
2023/06/22 10:55:17;;;;;;;17.90;6.70;;;;;;;32.70;42.25;99210.39;135989;1257;22542;-68
2023/06/22 10:58:19;;;;;;;17.40;6.30;;;;;;;32.81;41.23;99206.58;136027;1275;22526;-64
2023/06/22 11:01:22;;;;;;;18.10;6.50;;;;;;;32.80;41.27;99207.81;135942;1275;22646;-67
2023/06/22 11:04:24;;;;;;;17.10;6.00;;;;;;;32.65;41.32;99207.80;136041;1275;22519;-64
2023/06/22 11:07:28;;;;;;;15.60;5.80;;;;;;;32.72;41.16;99202.67;136061;1275;22505;-66
2023/06/22 11:10:31;;;;;;;16.00;6.30;;;;;;;32.77;41.15;99203.00;136139;1275;24337;-67
2023/06/22 11:13:33;;;;;;;16.40;6.40;;;;;;;32.74;42.41;99201.95;136086;1275;25387;-65
2023/06/22 11:16:36;;;;;;;17.80;7.20;;;;;;;32.72;41.66;99203.14;136048;1275;22546;-67
2023/06/22 11:19:38;;;;;;;17.40;6.60;;;;;;;32.62;40.95;99193.00;136042;1275;22868;-66
2023/06/22 11:22:40;;;;;;;17.70;6.90;;;;;;;32.23;42.53;99193.56;135999;1269;22532;-66
2023/06/22 11:25:43;;;;;;;21.30;6.70;;;;;;;31.77;42.70;99195.02;136041;1275;22523;-68
2023/06/22 11:28:45;;;;;;;15.70;6.30;;;;;;;32.17;42.84;99188.44;136022;1275;22531;-66
2023/06/22 11:31:48;;;;;;;15.80;6.10;;;;;;;32.59;42.29;99184.11;136018;1275;25329;-66
2023/06/22 11:34:50;;;;;;;17.30;6.90;;;;;;;32.34;41.80;99183.50;135995;1275;22538;-66
2023/06/22 11:37:52;;;;;;;15.60;6.40;;;;;;;32.30;42.53;99175.54;135989;1275;22527;-65
2023/06/22 11:40:55;;;;;;;19.10;6.90;;;;;;;32.81;41.54;99174.14;136040;1275;22541;-67
2023/06/22 11:43:57;;;;;;;17.20;6.70;;;;;;;33.19;41.11;99171.70;136078;1275;22553;-64
2023/06/22 11:47:00;;;;;;;19.00;7.30;;;;;;;33.27;40.73;99170.95;136071;1275;22527;-65
2023/06/22 11:50:03;;;;;;;19.00;6.90;;;;;;;32.92;40.57;99173.88;136044;1275;22670;-65
2023/06/22 11:53:05;;;;;;;19.00;7.20;;;;;;;32.86;41.22;99172.82;136039;1270;24227;-65
2023/06/22 11:56:08;;;;;;;19.20;8.00;;;;;;;32.75;41.26;99172.65;136060;1253;22540;-66
2023/06/22 11:59:10;;;;;;;19.60;7.60;;;;;;;32.77;41.23;99171.98;136101;1275;22551;-65
2023/06/22 12:02:13;;;;;;;20.00;7.70;;;;;;;32.97;40.49;99165.44;136072;1275;22530;-64
2023/06/22 12:05:15;;;;;;;17.80;7.30;;;;;;;33.10;40.11;99159.52;136076;1275;23947;-64
2023/06/22 12:08:18;;;;;;;16.80;6.70;;;;;;;33.48;40.91;99153.46;136020;1275;22526;-65
2023/06/22 12:11:20;;;;;;;17.70;7.40;;;;;;;33.81;39.23;99152.19;136083;1275;22543;-66
2023/06/22 12:14:23;;;;;;;18.70;7.60;;;;;;;33.71;39.58;99145.78;136063;1275;22537;-64
2023/06/22 12:17:25;;;;;;;20.40;7.60;;;;;;;33.93;39.34;99147.55;136021;1275;22534;-66
2023/06/22 12:20:28;;;;;;;19.50;6.80;;;;;;;33.99;40.09;99147.90;136109;1257;22531;-66
2023/06/22 12:23:30;;;;;;;18.10;7.40;;;;;;;34.62;39.83;99147.77;135918;1275;22567;-67
2023/06/22 12:26:32;;;;;;;17.40;7.20;;;;;;;34.71;38.02;99147.23;135885;1275;23317;-65
2023/06/22 12:29:35;;;;;;;18.80;8.10;;;;;;;34.39;38.20;99148.85;135908;1275;22583;-65
2023/06/22 12:32:37;;;;;;;21.20;7.90;;;;;;;34.10;38.94;99149.98;136089;1275;22542;-65
2023/06/22 12:35:40;;;;;;;17.50;7.60;;;;;;;33.97;38.79;99150.62;136014;1275;24218;-66
2023/06/22 12:38:42;;;;;;;18.50;8.10;;;;;;;33.63;38.51;99148.42;135989;1275;22540;-66
2023/06/22 12:41:44;;;;;;;17.50;8.00;;;;;;;33.48;38.70;99143.79;136095;1275;22540;-65
2023/06/22 12:44:47;;;;;;;19.00;7.80;;;;;;;33.94;38.60;99140.48;136073;1275;22653;-67
2023/06/22 12:47:50;;;;;;;18.50;7.20;;;;;;;34.69;38.99;99137.48;136128;1275;22539;-66
2023/06/22 12:50:53;;;;;;;21.30;7.60;;;;;;;34.77;37.39;99138.19;136089;1275;22520;-65
2023/06/22 12:53:55;;;;;;;19.30;8.90;;;;;;;34.45;37.96;99140.30;136106;1275;26617;-63
2023/06/22 12:56:57;;;;;;;20.90;8.40;;;;;;;34.33;37.91;99141.10;136059;1275;22541;-65
2023/06/22 13:00:00;;;;;;;17.60;7.60;;;;;;;34.36;37.74;99136.48;135875;1257;22571;-65
2023/06/22 13:03:03;;;;;;;19.40;8.50;;;;;;;34.57;37.40;99133.23;135973;1256;22536;-65
2023/06/22 13:06:05;;;;;;;19.30;8.70;;;;;;;34.98;37.85;99128.92;135925;1275;22553;-66
2023/06/22 13:09:08;;;;;;;20.20;8.10;;;;;;;35.33;37.50;99126.62;135719;1275;22527;-65
2023/06/22 13:12:11;;;;;;;19.10;8.10;;;;;;;35.47;38.70;99119.48;135770;1275;22570;-65
2023/06/22 13:15:13;;;;;;;17.40;7.70;;;;;;;35.83;37.18;99115.03;135826;1256;22523;-65
2023/06/22 13:18:15;;;;;;;18.40;7.70;;;;;;;35.58;36.06;99110.48;135938;1275;22650;-65
2023/06/22 13:21:18;;;;;;;18.80;7.50;;;;;;;35.35;36.64;99108.72;136010;1275;22541;-66
2023/06/22 13:24:20;;;;;;;17.90;7.20;;;;;;;35.49;35.64;99107.79;136113;1275;22538;-66
2023/06/22 13:27:23;;;;;;;18.00;7.20;;;;;;;35.48;36.27;99104.79;136111;1275;22527;-65
2023/06/22 13:30:25;;;;;;;19.30;7.10;;;;;;;35.07;35.75;99104.11;136095;1275;22550;-65
2023/06/22 13:33:27;;;;;;;19.40;7.40;;;;;;;34.66;36.42;99108.20;136060;1254;22649;-65
2023/06/22 13:36:30;;;;;;;17.80;6.80;;;;;;;34.76;36.21;99104.55;136038;1275;25590;-65
2023/06/22 13:39:33;;;;;;;18.90;7.50;;;;;;;35.07;36.85;99099.32;136059;1275;22652;-67
2023/06/22 13:42:35;;;;;;;19.40;7.30;;;;;;;34.78;35.47;99105.13;135948;1275;22584;-66
2023/06/22 13:45:38;;;;;;;17.80;7.40;;;;;;;34.56;36.16;99104.24;136098;1275;22552;-66
2023/06/22 13:48:40;;;;;;;18.10;7.40;;;;;;;34.81;36.15;99106.02;136061;1275;22536;-65